createdAt,value
2023-03-04T00:02:05.266Z,101202.00
2023-03-04T00:04:31.683Z,101190.03
2023-03-04T00:06:58.128Z,101191.47
2023-03-04T00:09:24.478Z,101194.94
2023-03-04T00:11:50.859Z,101198.50
2023-03-04T00:14:17.167Z,101199.47
2023-03-04T00:16:43.600Z,101204.84
2023-03-04T00:19:10.563Z,101206.63
2023-03-04T00:21:36.912Z,101204.28
2023-03-04T00:24:03.271Z,101204.28
2023-03-04T00:26:29.604Z,101199.47
2023-03-04T00:28:55.902Z,101196.91
2023-03-04T00:31:22.278Z,101194.78
2023-03-04T00:33:48.610Z,101192.31
2023-03-04T00:36:14.906Z,101187.91
2023-03-04T00:38:41.275Z,101186.31
2023-03-04T00:41:07.602Z,101185.34
2023-03-04T00:43:33.958Z,101188.56
2023-03-04T00:46:00.439Z,101183.84
2023-03-04T00:48:26.832Z,101178.19
2023-03-04T00:50:53.911Z,101179.78
2023-03-04T00:53:20.512Z,101182.66
2023-03-04T00:55:46.904Z,101185.56
2023-03-04T00:58:13.164Z,101176.78
2023-03-04T01:00:39.471Z,101169.41
2023-03-04T01:03:05.864Z,101171.53
2023-03-04T01:05:34.160Z,101169.31
2023-03-04T01:08:00.525Z,101168.97
2023-03-04T01:10:26.929Z,101164.41
2023-03-04T01:12:53.261Z,101166.78
2023-03-04T01:15:19.561Z,101180.25
2023-03-04T01:17:46.071Z,101170.94
2023-03-04T01:20:12.625Z,101164.59
2023-03-04T01:22:38.931Z,101161.94
2023-03-04T01:25:05.504Z,101165.47
2023-03-04T01:27:31.809Z,101167.75
2023-03-04T01:29:58.131Z,101158.28
2023-03-04T01:32:24.671Z,101158.34
2023-03-04T01:34:50.985Z,101155.28
2023-03-04T01:37:17.374Z,101151.91
2023-03-04T01:39:43.689Z,101142.16
2023-03-04T01:42:16.908Z,101140.88
2023-03-04T01:44:43.752Z,101131.06
2023-03-04T01:47:10.199Z,101132.66
2023-03-04T01:49:36.548Z,101138.34
2023-03-04T01:52:02.903Z,101129.16
2023-03-04T01:54:29.233Z,101126.59
2023-03-04T01:56:56.190Z,101114.94
2023-03-04T01:59:23.763Z,101128.25
2023-03-04T02:01:51.658Z,101122.84
2023-03-04T02:04:19.367Z,101119.38
2023-03-04T02:06:46.688Z,101119.38
2023-03-04T02:09:14.559Z,101116.06
2023-03-04T02:11:40.961Z,101105.38
2023-03-04T02:14:07.658Z,101109.88
2023-03-04T02:16:33.939Z,101107.09
2023-03-04T02:19:00.539Z,101097.00
2023-03-04T02:21:31.307Z,101108.06
2023-03-04T02:24:15.180Z,101099.84
2023-03-04T02:26:43.541Z,101092.41
2023-03-04T02:29:14.439Z,101077.75
2023-03-04T02:31:41.834Z,101082.25
2023-03-04T02:34:13.536Z,101077.94
2023-03-04T02:36:40.494Z,101074.53
2023-03-04T02:39:15.119Z,101082.78
2023-03-04T02:41:41.596Z,101067.63
2023-03-04T02:44:31.162Z,101067.19
2023-03-04T02:46:57.993Z,101071.44
2023-03-04T02:49:25.901Z,101064.50
2023-03-04T02:51:53.357Z,101065.03
2023-03-04T02:54:21.783Z,101065.81
2023-03-04T02:56:52.403Z,101057.88
2023-03-04T02:59:19.307Z,101060.22
2023-03-04T03:01:45.803Z,101050.47
2023-03-04T03:04:12.855Z,101052.88
2023-03-04T03:06:39.442Z,101042.63
2023-03-04T03:09:06.302Z,101046.94
2023-03-04T03:11:32.743Z,101051.38
2023-03-04T03:13:59.108Z,101043.22
2023-03-04T03:16:25.590Z,101045.63
2023-03-04T03:18:51.907Z,101036.97
2023-03-04T03:21:18.353Z,101043.84
2023-03-04T03:23:44.684Z,101035.56
2023-03-04T03:26:10.980Z,101041.00
2023-03-04T03:28:37.285Z,101039.50
2023-03-04T03:31:03.608Z,101035.38
2023-03-04T03:33:29.990Z,101035.78
2023-03-04T03:35:56.404Z,101035.00
2023-03-04T03:38:22.757Z,101031.66
2023-03-04T03:40:49.233Z,101031.56
2023-03-04T03:43:15.571Z,101029.53
2023-03-04T03:45:41.845Z,101034.75
2023-03-04T03:48:08.175Z,101035.25
2023-03-04T03:50:34.625Z,101029.94
2023-03-04T03:53:00.956Z,101025.00
2023-03-04T03:55:28.039Z,101032.34
2023-03-04T03:57:54.366Z,101026.31
2023-03-04T04:00:21.223Z,101019.28
2023-03-04T04:02:47.580Z,101023.00
2023-03-04T04:05:14.094Z,101021.19
2023-03-04T04:07:41.663Z,101014.25
2023-03-04T04:10:08.440Z,101006.72
2023-03-04T04:12:34.953Z,101011.34
2023-03-04T04:15:01.358Z,101019.47
2023-03-04T04:17:27.994Z,101005.19
2023-03-04T04:19:54.405Z,101013.84
2023-03-04T04:22:20.876Z,101010.81
2023-03-04T04:24:47.609Z,101020.28
2023-03-04T04:27:14.015Z,101014.34
2023-03-04T04:29:40.567Z,101011.03
2023-03-04T04:32:07.133Z,101004.78
2023-03-04T04:34:33.560Z,101015.28
2023-03-04T04:37:00.200Z,101017.13
2023-03-04T04:39:26.471Z,101018.16
2023-03-04T04:41:52.787Z,101013.94
2023-03-04T04:44:19.085Z,101007.53
2023-03-04T04:46:45.474Z,101012.31
2023-03-04T04:49:11.815Z,101010.97
2023-03-04T04:51:38.745Z,101004.28
2023-03-04T04:54:05.434Z,101009.44
2023-03-04T04:56:32.282Z,101008.50
2023-03-04T04:58:59.789Z,101014.66
2023-03-04T05:01:26.605Z,101003.16
2023-03-04T05:03:55.670Z,101005.41
2023-03-04T05:06:22.858Z,101003.81
2023-03-04T05:08:49.504Z,101006.66
2023-03-04T05:11:16.231Z,101001.66
2023-03-04T05:13:42.775Z,101008.56
2023-03-04T05:16:09.678Z,100998.44
2023-03-04T05:18:36.150Z,100997.41
2023-03-04T05:21:03.518Z,100995.63
2023-03-04T05:23:30.928Z,100998.53
2023-03-04T05:25:57.293Z,100993.09
2023-03-04T05:28:24.022Z,100990.88
2023-03-04T05:30:50.493Z,100988.50
2023-03-04T05:33:17.118Z,100983.16
2023-03-04T05:35:43.982Z,100980.25
2023-03-04T05:38:11.963Z,100989.41
2023-03-04T05:40:38.916Z,100984.69
2023-03-04T05:43:05.422Z,100976.66
2023-03-04T05:45:31.842Z,100980.47
2023-03-04T05:47:58.315Z,100981.47
2023-03-04T05:50:24.703Z,100987.09
2023-03-04T05:52:51.009Z,100986.72
2023-03-04T05:55:17.460Z,100986.50
2023-03-04T05:57:44.391Z,100985.00
2023-03-04T06:00:11.680Z,100982.50
2023-03-04T06:02:38.056Z,100984.50
2023-03-04T06:05:04.546Z,100984.50
2023-03-04T06:07:30.915Z,100980.81
2023-03-04T06:09:57.405Z,100997.38
2023-03-04T06:12:23.766Z,100986.59
2023-03-04T06:14:50.242Z,100989.31
2023-03-04T06:17:16.590Z,100991.16
2023-03-04T06:19:43.093Z,100988.19
2023-03-04T06:22:09.833Z,100981.84
2023-03-04T06:24:36.275Z,100981.56
2023-03-04T06:27:02.983Z,100984.56
2023-03-04T06:29:29.328Z,100982.44
2023-03-04T06:31:55.697Z,100983.94
2023-03-04T06:34:22.049Z,100987.47
2023-03-04T06:36:48.399Z,100989.16
2023-03-04T06:39:14.835Z,100979.81
2023-03-04T06:41:41.145Z,100987.25
2023-03-04T06:44:08.049Z,100993.75
2023-03-04T06:46:35.216Z,100997.09
2023-03-04T06:49:02.069Z,100997.28
2023-03-04T06:51:28.455Z,100996.28
2023-03-04T06:53:54.828Z,100998.41
2023-03-04T06:56:21.261Z,100997.28
2023-03-04T06:58:47.852Z,101004.44
2023-03-04T07:01:17.378Z,101004.16
2023-03-04T07:03:43.736Z,101002.06
2023-03-04T07:06:14.022Z,101009.00
2023-03-04T07:08:40.806Z,101006.66
2023-03-04T07:11:07.413Z,100997.53
2023-03-04T07:13:35.412Z,101005.66
2023-03-04T07:16:01.847Z,100995.13
2023-03-04T07:18:28.171Z,100999.44
2023-03-04T07:20:54.491Z,101001.13
2023-03-04T07:23:20.884Z,101005.88
2023-03-04T07:25:48.474Z,101008.34
2023-03-04T07:28:14.775Z,101007.94
2023-03-04T07:30:41.287Z,101002.00
2023-03-04T07:33:07.773Z,101004.63
2023-03-04T07:35:34.124Z,101006.63
2023-03-04T07:38:00.600Z,101016.56
2023-03-04T07:40:26.907Z,101007.97
2023-03-04T07:42:54.734Z,101015.25
2023-03-04T07:45:21.371Z,101008.91
2023-03-04T07:47:47.649Z,101013.06
2023-03-04T07:50:15.847Z,101007.13
2023-03-04T07:52:45.034Z,101001.91
2023-03-04T07:55:12.041Z,101010.69
2023-03-04T07:57:39.318Z,101012.31
2023-03-04T08:00:05.920Z,101010.69
2023-03-04T08:02:32.280Z,101007.66
2023-03-04T08:04:58.578Z,101003.22
2023-03-04T08:07:24.936Z,101006.38
2023-03-04T08:09:51.225Z,101000.81
2023-03-04T08:12:17.752Z,101004.16
2023-03-04T08:14:45.056Z,101001.13
2023-03-04T08:17:11.429Z,101008.25
2023-03-04T08:19:37.732Z,101000.00
2023-03-04T08:22:04.052Z,101003.31
2023-03-04T08:24:30.362Z,101000.25
2023-03-04T08:26:56.783Z,100995.69
2023-03-04T08:29:24.200Z,101006.53
2023-03-04T08:31:51.552Z,101015.56
2023-03-04T08:34:19.810Z,101021.31
2023-03-04T08:36:46.213Z,101015.56
2023-03-04T08:39:13.512Z,101015.56
2023-03-04T08:41:39.898Z,101016.47
2023-03-04T08:44:08.157Z,101016.84
2023-03-04T08:46:34.457Z,101014.97
2023-03-04T08:49:00.852Z,101020.31
2023-03-04T08:51:27.163Z,101014.44
2023-03-04T08:53:53.720Z,101014.75
2023-03-04T08:56:20.142Z,101025.00
2023-03-04T08:58:46.529Z,101034.94
2023-03-04T09:01:13.466Z,101023.31
2023-03-04T09:03:40.225Z,101040.34
2023-03-04T09:06:07.284Z,101030.63
2023-03-04T09:08:33.829Z,101033.16
2023-03-04T09:11:00.229Z,101036.56
2023-03-04T09:13:28.290Z,101029.16
2023-03-04T09:15:54.672Z,101045.03
2023-03-04T09:18:21.982Z,101048.25
2023-03-04T09:20:48.590Z,101047.59
2023-03-04T09:23:14.965Z,101036.44
2023-03-04T09:25:42.344Z,101051.19
2023-03-04T09:28:08.635Z,101053.44
2023-03-04T09:30:34.938Z,101060.34
2023-03-04T09:33:01.731Z,101061.94
2023-03-04T09:35:29.872Z,101053.13
2023-03-04T09:37:56.950Z,101053.16
2023-03-04T09:40:25.049Z,101059.16
2023-03-04T09:42:52.782Z,101059.25
2023-03-04T09:45:21.202Z,101050.72
2023-03-04T09:47:49.318Z,101052.03
2023-03-04T09:50:15.913Z,101053.63
2023-03-04T09:53:02.563Z,101050.84
2023-03-04T09:55:33.896Z,101050.22
2023-03-04T09:58:06.960Z,101049.09
2023-03-04T10:00:40.601Z,101050.56
2023-03-04T10:03:09.887Z,101060.28
2023-03-04T10:05:42.285Z,101050.91
2023-03-04T10:08:23.779Z,101066.72
2023-03-04T10:10:52.593Z,101054.16
2023-03-04T10:13:23.525Z,101061.78
2023-03-04T10:15:51.312Z,101053.91
2023-03-04T10:18:50.262Z,101067.56
2023-03-04T10:21:26.331Z,101064.41
2023-03-04T10:23:54.283Z,101065.19
2023-03-04T10:26:21.356Z,101054.56
2023-03-04T10:28:48.063Z,101069.69
2023-03-04T10:31:29.634Z,101064.22
2023-03-04T10:33:56.353Z,101069.47
2023-03-04T10:36:31.876Z,101075.22
2023-03-04T10:38:58.159Z,101074.34
2023-03-04T10:41:27.549Z,101092.09
2023-03-04T10:44:01.768Z,101075.41
2023-03-04T10:46:28.192Z,101082.88
2023-03-04T10:48:55.017Z,101091.31
2023-03-04T10:51:23.009Z,101080.66
2023-03-04T10:53:51.319Z,101076.25
2023-03-04T10:56:46.212Z,101072.44
2023-03-04T10:59:31.828Z,101079.31
2023-03-04T11:01:59.167Z,101075.63
2023-03-04T11:04:26.807Z,101077.38
2023-03-04T11:06:53.556Z,101078.13
2023-03-04T11:09:24.675Z,101082.47
2023-03-04T11:11:52.076Z,101068.53
2023-03-04T11:14:51.064Z,101102.50
2023-03-04T11:17:17.503Z,101093.19
2023-03-04T11:19:46.257Z,101097.63
2023-03-04T11:22:15.684Z,101092.63
2023-03-04T11:24:43.121Z,101094.09
2023-03-04T11:27:18.193Z,101092.63
2023-03-04T11:29:58.367Z,101100.84
2023-03-04T11:32:27.568Z,101096.63
2023-03-04T11:34:59.980Z,101107.94
2023-03-04T11:37:31.682Z,101115.03
2023-03-04T11:40:04.951Z,101109.25
2023-03-04T11:42:34.512Z,101108.19
2023-03-04T11:45:00.984Z,101105.34
2023-03-04T11:47:42.415Z,101102.56
2023-03-04T11:50:11.795Z,101113.78
2023-03-04T11:53:16.789Z,101111.69
2023-03-04T11:55:43.073Z,101108.44
2023-03-04T11:58:11.979Z,101114.16
2023-03-04T12:00:43.803Z,101117.19
2023-03-04T12:03:13.255Z,101123.66
2023-03-04T12:05:58.227Z,101122.69
2023-03-04T12:08:24.496Z,101121.50
2023-03-04T12:10:50.761Z,101117.88
2023-03-04T12:13:30.991Z,101130.72
2023-03-04T12:16:00.283Z,101130.00
2023-03-04T12:18:40.269Z,101124.63
2023-03-04T12:21:06.532Z,101123.19
2023-03-04T12:23:44.246Z,101129.66
2023-03-04T12:28:56.681Z,101136.41
2023-03-04T12:31:32.685Z,101137.16
2023-03-04T12:34:14.298Z,101133.31
2023-03-04T12:36:40.568Z,101136.81
2023-03-04T12:39:22.214Z,101123.63
2023-03-04T12:41:54.712Z,101133.00
2023-03-04T12:44:21.522Z,101130.88
2023-03-04T12:46:47.836Z,101128.03
2023-03-04T12:49:46.563Z,101132.63
2023-03-04T12:52:31.451Z,101135.09
2023-03-04T12:55:00.225Z,101126.94
2023-03-04T12:57:31.427Z,101133.06
2023-03-04T13:00:03.251Z,101126.56
2023-03-04T13:02:35.322Z,101120.50
2023-03-04T13:05:04.638Z,101122.63
2023-03-04T13:07:30.900Z,101124.16
2023-03-04T13:10:23.762Z,101123.09
2023-03-04T13:12:57.073Z,101128.84
2023-03-04T13:15:31.235Z,101129.53
2023-03-04T13:18:16.113Z,101123.22
2023-03-04T13:20:42.747Z,101133.94
2023-03-04T13:23:09.026Z,101122.19
2023-03-04T13:25:48.248Z,101137.13
2023-03-04T13:28:21.356Z,101124.06
2023-03-04T13:30:55.759Z,101129.34
2023-03-04T13:33:22.271Z,101124.50
2023-03-04T13:36:25.827Z,101137.78
2023-03-04T13:39:10.721Z,101131.91
2023-03-04T13:41:50.521Z,101127.81
2023-03-04T13:44:37.150Z,101131.38
2023-03-04T13:47:16.080Z,101126.38
2023-03-04T13:49:42.399Z,101130.13
2023-03-04T13:52:27.359Z,101134.53
2023-03-04T13:55:13.602Z,101121.50
2023-03-04T13:57:48.103Z,101127.75
2023-03-04T14:00:15.181Z,101122.00
2023-03-04T14:02:41.483Z,101120.03
2023-03-04T14:05:11.695Z,101115.09
2023-03-04T14:07:38.100Z,101119.72
2023-03-04T14:10:05.098Z,101124.84
2023-03-04T14:12:48.837Z,101110.22
2023-03-04T14:15:31.322Z,101121.72
2023-03-04T14:17:58.585Z,101129.31
2023-03-04T14:20:32.705Z,101124.00
2023-03-04T14:23:00.346Z,101117.88
2023-03-04T14:25:28.039Z,101123.91
2023-03-04T14:28:14.038Z,101126.09
2023-03-04T14:30:43.684Z,101124.84
2023-03-04T14:33:19.432Z,101119.28
2023-03-04T14:35:47.883Z,101109.34
2023-03-04T14:38:29.762Z,101115.94
2023-03-04T14:41:00.308Z,101116.81
2023-03-04T14:43:27.488Z,101118.34
2023-03-04T14:45:55.720Z,101119.47
2023-03-04T14:48:31.272Z,101106.63
2023-03-04T14:50:58.442Z,101103.59
2023-03-04T14:53:26.362Z,101120.91
2023-03-04T14:55:57.825Z,101101.53
2023-03-04T14:58:28.589Z,101102.25
2023-03-04T15:01:04.190Z,101098.72
2023-03-04T15:03:31.206Z,101087.28
2023-03-04T15:06:06.822Z,101088.53
2023-03-04T15:08:37.913Z,101082.09
2023-03-04T15:11:05.728Z,101087.03
2023-03-04T15:13:42.760Z,101091.75
2023-03-04T15:16:10.001Z,101089.66
2023-03-04T15:18:36.699Z,101089.88
2023-03-04T15:21:04.658Z,101088.53
2023-03-04T15:23:32.088Z,101091.63
2023-03-04T15:25:59.846Z,101097.19
2023-03-04T15:28:27.404Z,101095.16
2023-03-04T15:30:54.511Z,101091.03
2023-03-04T15:33:21.386Z,101091.84
2023-03-04T15:35:59.688Z,101095.28
2023-03-04T15:38:26.664Z,101088.78
2023-03-04T15:40:54.477Z,101081.47
2023-03-04T15:43:21.696Z,101086.72
2023-03-04T15:45:48.752Z,101092.75
2023-03-04T15:48:16.018Z,101080.50
2023-03-04T15:50:48.122Z,101078.25
2023-03-04T15:53:17.868Z,101085.31
2023-03-04T15:55:45.803Z,101082.78
2023-03-04T15:58:13.385Z,101082.03
2023-03-04T16:00:39.778Z,101082.09
2023-03-04T16:03:06.189Z,101083.69
2023-03-04T16:05:35.846Z,101089.13
2023-03-04T16:08:02.404Z,101086.06
2023-03-04T16:10:32.551Z,101073.72
2023-03-04T16:12:59.062Z,101074.56
2023-03-04T16:15:26.903Z,101063.31
2023-03-04T16:17:54.075Z,101074.63
2023-03-04T16:20:22.301Z,101073.97
2023-03-04T16:22:51.198Z,101081.38
2023-03-04T16:25:17.956Z,101076.81
2023-03-04T16:27:44.933Z,101075.13
2023-03-04T16:30:15.431Z,101075.31
2023-03-04T16:32:42.072Z,101074.59
2023-03-04T16:35:09.280Z,101081.94
2023-03-04T16:37:35.715Z,101075.25
2023-03-04T16:40:04.537Z,101074.94
2023-03-04T16:42:30.944Z,101082.75
2023-03-04T16:44:57.729Z,101077.13
2023-03-04T16:47:24.059Z,101086.00
2023-03-04T16:49:50.624Z,101082.25
2023-03-04T16:52:27.709Z,101079.13
2023-03-04T16:54:54.052Z,101078.66
2023-03-04T16:57:20.442Z,101081.22
2023-03-04T16:59:47.331Z,101095.84
2023-03-04T17:02:14.886Z,101087.97
2023-03-04T17:04:41.452Z,101086.50
2023-03-04T17:07:07.762Z,101090.44
2023-03-04T17:09:34.054Z,101082.16
2023-03-04T17:12:00.323Z,101088.13
2023-03-04T17:14:26.769Z,101096.38
2023-03-04T17:16:53.124Z,101086.16
2023-03-04T17:19:19.437Z,101092.19
2023-03-04T17:21:45.751Z,101098.88
2023-03-04T17:24:12.292Z,101094.38
2023-03-04T17:26:39.703Z,101103.13
2023-03-04T17:29:06.006Z,101097.91
2023-03-04T17:31:32.644Z,101101.59
2023-03-04T17:33:58.995Z,101099.63
2023-03-04T17:36:25.290Z,101101.13
2023-03-04T17:38:52.012Z,101092.69
2023-03-04T17:41:18.896Z,101097.06
2023-03-04T17:43:46.120Z,101091.75
2023-03-04T17:46:13.483Z,101090.50
2023-03-04T17:48:39.913Z,101101.81
2023-03-04T17:51:06.287Z,101088.94
2023-03-04T17:53:33.034Z,101091.78
2023-03-04T17:56:00.326Z,101093.63
2023-03-04T17:58:27.510Z,101092.09
2023-03-04T18:00:56.400Z,101088.00
2023-03-04T18:03:22.798Z,101084.78
2023-03-04T18:05:49.130Z,101092.97
2023-03-04T18:08:15.500Z,101088.38
2023-03-04T18:10:41.796Z,101096.16
2023-03-04T18:13:08.607Z,101089.16
2023-03-04T18:15:34.943Z,101084.47
2023-03-04T18:18:01.266Z,101082.97
2023-03-04T18:20:27.609Z,101081.38
2023-03-04T18:22:54.072Z,101085.59
2023-03-04T18:25:21.304Z,101076.25
2023-03-04T18:27:47.655Z,101074.44
2023-03-04T18:30:17.594Z,101076.28
2023-03-04T18:32:51.720Z,101090.25
2023-03-04T18:35:19.509Z,101080.09
2023-03-04T18:37:45.916Z,101080.78
2023-03-04T18:40:12.512Z,101074.16
2023-03-04T18:42:39.027Z,101082.00
2023-03-04T18:45:05.752Z,101078.34
2023-03-04T18:47:33.411Z,101082.97
2023-03-04T18:49:59.778Z,101082.88
2023-03-04T18:52:26.079Z,101075.75
2023-03-04T18:54:52.401Z,101081.31
2023-03-04T18:57:18.833Z,101080.16
2023-03-04T18:59:50.210Z,101090.81
2023-03-04T19:02:24.749Z,101083.19
2023-03-04T19:04:52.566Z,101076.94
2023-03-04T19:07:18.929Z,101070.88
2023-03-04T19:09:45.308Z,101070.81
2023-03-04T19:12:12.144Z,101060.88
2023-03-04T19:14:38.479Z,101069.13
2023-03-04T19:17:04.810Z,101075.44
2023-03-04T19:19:31.160Z,101068.72
2023-03-04T19:21:58.280Z,101067.31
2023-03-04T19:24:24.826Z,101067.22
2023-03-04T19:26:51.112Z,101069.94
2023-03-04T19:29:17.512Z,101070.44
2023-03-04T19:31:43.879Z,101072.94
2023-03-04T19:34:11.844Z,101068.34
2023-03-04T19:36:38.763Z,101063.91
2023-03-04T19:39:05.649Z,101070.06
2023-03-04T19:41:32.135Z,101073.38
2023-03-04T19:43:58.637Z,101072.34
2023-03-04T19:46:25.414Z,101073.75
2023-03-04T19:48:51.829Z,101058.88
2023-03-04T19:51:19.475Z,101060.03
2023-03-04T19:53:46.129Z,101053.94
2023-03-04T19:56:13.004Z,101059.66
2023-03-04T19:58:39.423Z,101063.41
2023-03-04T20:01:05.891Z,101063.13
2023-03-04T20:03:32.915Z,101054.72
2023-03-04T20:06:03.211Z,101047.38
2023-03-04T20:08:29.657Z,101045.50
2023-03-04T20:10:55.949Z,101042.09
2023-03-04T20:13:22.373Z,101049.19
2023-03-04T20:15:48.811Z,101044.28
2023-03-04T20:18:15.156Z,101043.50
2023-03-04T20:20:41.452Z,101039.31
2023-03-04T20:23:09.418Z,101035.16
2023-03-04T20:25:35.950Z,101027.34
2023-03-04T20:28:02.320Z,101042.97
2023-03-04T20:30:28.888Z,101049.44
2023-03-04T20:32:55.205Z,101051.13
2023-03-04T20:35:21.600Z,101050.91
2023-03-04T20:37:48.028Z,101052.50
2023-03-04T20:40:14.501Z,101053.91
2023-03-04T20:42:40.845Z,101052.38
2023-03-04T20:45:07.527Z,101044.94
2023-03-04T20:47:34.100Z,101042.94
2023-03-04T20:50:00.485Z,101053.53
2023-03-04T20:52:26.833Z,101045.19
2023-03-04T20:54:53.303Z,101046.75
2023-03-04T20:57:20.210Z,101039.88
2023-03-04T20:59:46.674Z,101045.41
2023-03-04T21:02:14.044Z,101043.59
2023-03-04T21:04:40.462Z,101044.75
2023-03-04T21:07:06.865Z,101044.16
2023-03-04T21:09:33.321Z,101044.81
2023-03-04T21:12:00.890Z,101032.38
2023-03-04T21:14:31.593Z,101030.75
2023-03-04T21:16:59.757Z,101036.63
2023-03-04T21:19:30.876Z,101035.50
2023-03-04T21:21:58.084Z,101032.47
2023-03-04T21:24:25.631Z,101024.34
2023-03-04T21:26:52.450Z,101029.75
2023-03-04T21:29:19.994Z,101022.50
2023-03-04T21:31:47.606Z,101023.91
2023-03-04T21:34:25.168Z,101017.06
2023-03-04T21:36:51.629Z,101023.00
2023-03-04T21:39:19.729Z,101008.81
2023-03-04T21:41:46.694Z,101011.22
2023-03-04T21:44:22.806Z,101008.00
2023-03-04T21:47:00.311Z,101013.03
2023-03-04T21:49:27.186Z,100999.84
2023-03-04T21:51:53.673Z,101001.09
2023-03-04T21:54:20.234Z,100998.03
2023-03-04T21:56:46.657Z,100997.66
2023-03-04T21:59:14.216Z,100987.50
2023-03-04T22:01:41.336Z,100982.00
2023-03-04T22:04:07.758Z,100977.72
2023-03-04T22:06:34.417Z,100970.88
2023-03-04T22:09:01.685Z,100974.03
2023-03-04T22:11:28.254Z,100968.44
2023-03-04T22:13:55.293Z,100969.34
2023-03-04T22:16:21.778Z,100962.72
2023-03-04T22:18:48.477Z,100961.00
2023-03-04T22:21:15.978Z,100955.28
2023-03-04T22:23:42.602Z,100953.13
2023-03-04T22:26:13.088Z,100951.75
2023-03-04T22:28:39.768Z,100942.84
2023-03-04T22:31:17.365Z,100939.81
2023-03-04T22:33:44.672Z,100943.16
2023-03-04T22:36:11.103Z,100938.75
2023-03-04T22:38:37.752Z,100936.09
2023-03-04T22:41:05.491Z,100932.06
2023-03-04T22:43:31.887Z,100931.25
2023-03-04T22:46:00.179Z,100931.97
2023-03-04T22:48:26.841Z,100921.53
2023-03-04T22:50:53.192Z,100927.06
2023-03-04T22:53:19.593Z,100922.25
2023-03-04T22:55:45.952Z,100921.88
2023-03-04T22:58:12.321Z,100905.69
2023-03-04T23:00:38.809Z,100918.69
2023-03-04T23:03:06.441Z,100905.44
2023-03-04T23:05:32.777Z,100908.19
2023-03-04T23:07:59.674Z,100902.91
2023-03-04T23:10:26.003Z,100902.41
2023-03-04T23:12:52.611Z,100895.38
2023-03-04T23:15:19.467Z,100903.50
2023-03-04T23:17:46.243Z,100888.63
2023-03-04T23:20:14.301Z,100885.72
2023-03-04T23:22:40.793Z,100890.16
2023-03-04T23:25:07.504Z,100890.34
2023-03-04T23:27:33.805Z,100901.50
2023-03-04T23:30:00.217Z,100892.84
2023-03-04T23:32:26.543Z,100892.06
2023-03-04T23:34:54.486Z,100896.41
2023-03-04T23:37:21.968Z,100889.66
2023-03-04T23:39:48.751Z,100889.06
2023-03-04T23:42:15.246Z,100883.72
2023-03-04T23:44:42.069Z,100883.84
2023-03-04T23:47:08.423Z,100883.16
2023-03-04T23:49:34.755Z,100866.78
2023-03-04T23:52:01.130Z,100871.00
2023-03-04T23:54:27.481Z,100869.91
2023-03-04T23:56:53.895Z,100866.69
2023-03-04T23:59:20.252Z,100859.44
